Time;durP1;ratioP1;P1;durP2;ratioP2;P2;SDS_P1;SDS_P2;PMS_P1;PMS_P2;Temp;Humidity;BMP_temperature;BMP_pressure;BME280_temperature;BME280_humidity;BME280_pressure;Samples;Min_cycle;Max_cycle;Signal;HPM_P1;HPM_P2
2021/12/15 00:01:17;;;;;;;2.50;2.40;;;16.80;68.70;;;;;;5029547;28;20522;-25
2021/12/15 00:03:43;;;;;;;3.75;2.80;;;16.80;68.70;;;;;;5017357;28;20038;-25
2021/12/15 00:06:16;;;;;;;2.80;2.63;;;16.80;68.70;;;;;;5037492;28;20399;-25
2021/12/15 00:08:42;;;;;;;2.80;2.60;;;16.80;68.70;;;;;;5029230;28;20036;-25
2021/12/15 00:11:07;;;;;;;2.25;2.15;;;16.80;68.80;;;;;;5033998;28;20076;-27
2021/12/15 00:13:36;;;;;;;2.40;2.20;;;16.70;68.70;;;;;;5027065;28;20590;-24
2021/12/15 00:16:02;;;;;;;2.10;2.00;;;16.70;68.90;;;;;;5049566;28;20407;-28
2021/12/15 00:18:28;;;;;;;3.28;2.67;;;16.70;68.80;;;;;;5054564;28;20052;-25
2021/12/15 00:20:53;;;;;;;2.70;2.50;;;16.70;68.80;;;;;;5056166;28;20043;-27
2021/12/15 00:23:19;;;;;;;2.50;2.38;;;16.70;69.00;;;;;;5055323;28;20120;-31
2021/12/15 00:25:44;;;;;;;2.40;2.30;;;16.70;69.00;;;;;;5040537;28;20477;-28
2021/12/15 00:28:10;;;;;;;2.30;2.20;;;16.70;69.00;;;;;;5021732;28;20041;-26
2021/12/15 00:30:37;;;;;;;3.05;2.85;;;16.70;68.90;;;;;;5033611;28;20041;-26
2021/12/15 00:33:02;;;;;;;2.20;2.10;;;16.70;68.80;;;;;;5033387;28;20129;-29
2021/12/15 00:35:28;;;;;;;2.33;2.22;;;16.70;68.80;;;;;;5037316;28;20490;-27
2021/12/15 00:37:53;;;;;;;2.90;2.70;;;16.70;68.80;;;;;;5034366;28;20041;-25
2021/12/15 00:40:20;;;;;;;2.80;2.60;;;16.60;68.70;;;;;;5034827;28;20042;-25
2021/12/15 00:42:46;;;;;;;2.42;2.33;;;16.70;68.80;;;;;;5034421;28;20064;-29
2021/12/15 00:45:11;;;;;;;2.22;2.13;;;16.70;68.80;;;;;;5035188;28;20049;-27
2021/12/15 00:47:37;;;;;;;2.60;2.40;;;16.70;68.70;;;;;;5034585;28;20445;-27
2021/12/15 00:50:06;;;;;;;2.08;1.98;;;16.60;68.70;;;;;;5034866;28;20050;-27
2021/12/15 00:52:36;;;;;;;2.05;1.95;;;16.70;68.70;;;;;;5033960;28;20079;-26
2021/12/15 00:55:01;;;;;;;2.20;2.05;;;16.70;68.60;;;;;;5042603;28;20056;-28
2021/12/15 00:57:27;;;;;;;2.40;2.20;;;16.70;68.60;;;;;;5023274;28;20049;-29
2021/12/15 00:59:52;;;;;;;2.35;2.25;;;16.70;68.60;;;;;;5031279;28;20102;-26
2021/12/15 01:02:18;;;;;;;1.90;1.80;;;16.60;68.70;;;;;;5033760;28;20437;-28
2021/12/15 01:04:44;;;;;;;2.00;1.90;;;16.70;68.60;;;;;;5032818;28;20041;-26
2021/12/15 01:07:10;;;;;;;1.80;1.70;;;16.70;68.50;;;;;;5034880;28;20092;-24
2021/12/15 01:09:42;;;;;;;2.13;2.03;;;16.70;68.50;;;;;;5034561;28;20099;-27
2021/12/15 01:12:23;;;;;;;2.30;2.20;;;16.70;68.60;;;;;;5054315;28;20037;-23
2021/12/15 01:20:23;;;;;;;3.55;2.30;;;16.70;68.60;;;;;;5047402;28;20064;-32
2021/12/15 01:22:50;;;;;;;2.30;2.20;;;16.70;68.70;;;;;;5043629;28;20049;-26
2021/12/15 01:25:19;;;;;;;2.80;2.38;;;16.70;68.80;;;;;;5054597;28;20055;-28
2021/12/15 01:27:45;;;;;;;2.65;1.92;;;16.60;69.90;;;;;;5055240;28;20441;-28
2021/12/15 01:30:12;;;;;;;2.20;2.10;;;16.60;69.00;;;;;;5057561;28;20045;-31
2021/12/15 01:32:38;;;;;;;1.92;1.83;;;16.60;69.00;;;;;;5053371;28;20042;-23
2021/12/15 01:35:04;;;;;;;3.67;2.00;;;16.60;69.00;;;;;;5054373;28;20045;-25
2021/12/15 01:37:30;;;;;;;1.98;1.88;;;16.60;69.00;;;;;;5050228;28;20459;-24
2021/12/15 01:39:56;;;;;;;1.67;1.58;;;16.60;68.90;;;;;;5046260;28;20068;-26
2021/12/15 01:42:24;;;;;;;1.90;1.80;;;16.60;68.90;;;;;;5048262;28;20045;-26
2021/12/15 01:47:34;;;;;;;1.73;1.63;;;16.50;69.00;;;;;;5037507;28;20410;-31
2021/12/15 01:50:00;;;;;;;1.73;1.63;;;16.50;69.00;;;;;;5030429;28;20062;-28
2021/12/15 01:52:28;;;;;;;1.85;1.75;;;16.50;69.10;;;;;;5037058;28;20041;-25
2021/12/15 01:54:56;;;;;;;1.83;1.73;;;16.40;69.10;;;;;;5056482;28;20103;-28
2021/12/15 01:57:23;;;;;;;2.28;2.17;;;16.50;69.00;;;;;;5057214;28;20501;-26
2021/12/15 01:59:50;;;;;;;1.63;1.52;;;16.50;69.10;;;;;;5057371;28;20049;-26
2021/12/15 02:02:16;;;;;;;1.90;1.80;;;16.50;68.90;;;;;;5056756;28;20044;-28
2021/12/15 02:04:42;;;;;;;1.52;1.42;;;16.40;68.80;;;;;;5045521;28;20076;-28
2021/12/15 02:07:08;;;;;;;1.52;1.42;;;16.40;68.80;;;;;;5051284;28;20095;-23
2021/12/15 02:12:24;;;;;;;1.55;1.45;;;16.40;68.80;;;;;;5036709;28;20052;-29
2021/12/15 02:14:50;;;;;;;1.65;1.55;;;16.40;68.80;;;;;;5026032;28;20042;-25
2021/12/15 02:17:16;;;;;;;1.35;1.25;;;16.40;68.80;;;;;;5037763;28;20041;-26
2021/12/15 02:19:41;;;;;;;1.48;1.38;;;16.40;68.70;;;;;;5037610;28;20113;-29
2021/12/15 02:22:07;;;;;;;1.52;1.42;;;16.40;68.70;;;;;;5054916;28;20041;-25
2021/12/15 02:24:35;;;;;;;1.63;1.52;;;16.40;68.70;;;;;;5049352;28;20056;-25
2021/12/15 02:27:01;;;;;;;2.20;1.65;;;16.40;68.50;;;;;;5035657;28;20124;-28
2021/12/15 02:29:31;;;;;;;1.20;1.20;;;16.40;68.70;;;;;;5037344;28;20092;-26
2021/12/15 02:32:13;;;;;;;1.50;1.40;;;16.40;68.70;;;;;;5036040;28;20053;-26
2021/12/15 02:37:23;;;;;;;1.60;1.50;;;16.40;68.60;;;;;;5023279;28;20061;-26
2021/12/15 02:40:02;;;;;;;1.27;1.20;;;16.40;68.60;;;;;;5035496;28;20045;-23
2021/12/15 02:42:31;;;;;;;1.75;1.65;;;16.40;68.60;;;;;;5036713;28;20033;-22
2021/12/15 02:44:57;;;;;;;1.52;1.42;;;16.40;68.50;;;;;;5036522;28;20063;-28
2021/12/15 02:47:24;;;;;;;1.33;1.23;;;16.40;68.50;;;;;;5035925;28;20140;-27
2021/12/15 02:49:51;;;;;;;1.42;1.33;;;16.40;68.50;;;;;;5022853;28;20053;-25
2021/12/15 02:52:17;;;;;;;1.70;1.60;;;16.40;68.60;;;;;;5033436;28;20056;-25
2021/12/15 02:54:42;;;;;;;1.70;1.52;;;16.40;68.40;;;;;;5020183;28;20109;-29
2021/12/15 02:57:12;;;;;;;1.48;1.40;;;16.40;68.40;;;;;;5019578;28;20643;-24
2021/12/15 03:00:01;;;;;;;1.40;1.40;;;16.30;68.40;;;;;;5052572;28;20032;-30
2021/12/15 03:06:09;;;;;;;1.30;1.20;;;16.40;68.40;;;;;;5033140;28;20087;-29
2021/12/15 03:15:59;;;;;;;1.17;1.08;;;16.40;68.30;;;;;;5038558;28;20100;-32
2021/12/15 03:18:25;;;;;;;1.52;1.42;;;16.40;68.30;;;;;;5025872;28;20053;-23
2021/12/15 03:21:15;;;;;;;1.30;1.20;;;16.30;69.20;;;;;;5038822;28;20045;-25
2021/12/15 03:23:53;;;;;;;1.25;1.23;;;16.40;68.20;;;;;;5035303;28;20041;-31
2021/12/15 03:26:45;;;;;;;1.40;1.30;;;16.40;68.50;;;;;;5037225;28;20564;-28
2021/12/15 03:37:23;;;;;;;1.30;1.20;;;16.30;68.30;;;;;;5047476;28;20048;-25
2021/12/15 03:39:50;;;;;;;1.27;1.17;;;16.40;68.20;;;;;;5049445;28;20041;-23
2021/12/15 03:42:18;;;;;;;1.08;1.08;;;16.30;68.10;;;;;;5055051;28;20041;-25
2021/12/15 03:44:44;;;;;;;1.40;1.30;;;16.30;68.50;;;;;;5055599;28;20037;-29
2021/12/15 03:47:12;;;;;;;1.33;1.30;;;16.30;68.20;;;;;;5039295;28;20052;-25
2021/12/15 03:49:38;;;;;;;1.15;1.15;;;16.30;68.10;;;;;;5055475;28;20505;-28
2021/12/15 03:52:05;;;;;;;1.10;1.10;;;16.30;68.10;;;;;;5053945;28;20045;-25
2021/12/15 03:54:30;;;;;;;1.00;1.00;;;16.40;68.00;;;;;;5055650;28;20417;-26
2021/12/15 03:56:56;;;;;;;1.40;1.30;;;16.40;68.00;;;;;;5042913;28;20036;-28
2021/12/15 03:59:23;;;;;;;0.90;0.90;;;16.40;67.90;;;;;;5052993;28;20045;-29
2021/12/15 04:01:49;;;;;;;1.25;1.15;;;16.30;67.90;;;;;;5053548;28;20036;-24
2021/12/15 04:04:15;;;;;;;1.33;1.23;;;16.40;67.90;;;;;;5032666;28;20076;-23
2021/12/15 04:06:41;;;;;;;1.15;1.05;;;16.40;68.00;;;;;;5030724;28;20038;-29
2021/12/15 04:09:08;;;;;;;1.35;1.25;;;16.30;67.90;;;;;;5033573;28;20041;-23
2021/12/15 04:11:35;;;;;;;1.02;1.02;;;16.40;68.00;;;;;;5034356;28;20057;-25
2021/12/15 04:14:10;;;;;;;1.02;1.02;;;16.40;67.90;;;;;;5034633;28;20038;-26
2021/12/15 04:19:05;;;;;;;0.90;0.90;;;16.40;67.70;;;;;;5033676;28;20045;-25
2021/12/15 04:21:31;;;;;;;1.10;1.10;;;16.30;67.80;;;;;;5044584;28;20065;-30
2021/12/15 04:23:57;;;;;;;1.02;0.98;;;16.40;67.70;;;;;;5054613;28;20644;-34
2021/12/15 04:26:23;;;;;;;1.38;1.27;;;16.30;67.70;;;;;;5042071;28;20046;-28
2021/12/15 04:28:48;;;;;;;1.27;1.17;;;16.30;67.80;;;;;;5033044;28;20065;-26
2021/12/15 04:31:16;;;;;;;1.00;1.00;;;16.30;67.80;;;;;;5035186;28;20060;-27
2021/12/15 04:33:54;;;;;;;1.10;1.00;;;16.40;67.70;;;;;;5034799;28;20046;-25
2021/12/15 04:36:20;;;;;;;1.10;1.00;;;16.40;67.60;;;;;;5034832;28;20045;-24
2021/12/15 04:38:45;;;;;;;0.80;0.80;;;16.40;67.60;;;;;;5035442;28;20080;-26
2021/12/15 04:41:14;;;;;;;1.30;1.20;;;16.30;67.60;;;;;;5033291;28;20049;-28
2021/12/15 04:43:40;;;;;;;1.10;1.00;;;16.40;67.60;;;;;;5022552;28;20046;-30
2021/12/15 04:46:07;;;;;;;1.40;1.30;;;16.40;67.60;;;;;;5032774;28;20041;-27
2021/12/15 04:48:33;;;;;;;1.00;1.00;;;16.40;67.40;;;;;;5024664;28;20103;-30
2021/12/15 04:50:59;;;;;;;1.00;1.00;;;16.40;67.40;;;;;;5014685;28;20129;-23
2021/12/15 04:53:24;;;;;;;1.10;1.10;;;16.40;67.40;;;;;;5032307;28;20502;-27
2021/12/15 04:55:50;;;;;;;1.55;1.45;;;16.40;67.40;;;;;;5033957;28;20102;-28
2021/12/15 04:58:16;;;;;;;1.77;1.67;;;16.40;67.60;;;;;;5035957;28;20128;-32
2021/12/15 05:00:47;;;;;;;0.95;0.95;;;16.30;67.50;;;;;;5026539;28;20049;-21
2021/12/15 05:03:13;;;;;;;1.00;1.00;;;16.30;67.50;;;;;;5036440;28;20064;-24
2021/12/15 05:05:39;;;;;;;1.15;1.05;;;16.40;67.50;;;;;;5034756;28;20044;-27
2021/12/15 05:08:05;;;;;;;1.10;1.10;;;16.40;67.50;;;;;;5035978;28;20136;-25
2021/12/15 05:10:31;;;;;;;1.17;1.17;;;16.30;67.50;;;;;;5034149;28;20116;-28
2021/12/15 05:12:57;;;;;;;1.35;1.25;;;16.40;67.60;;;;;;5019302;28;20042;-29
2021/12/15 05:15:23;;;;;;;1.10;1.10;;;16.40;68.30;;;;;;5031240;28;20058;-25
2021/12/15 05:17:49;;;;;;;0.82;0.82;;;16.40;67.50;;;;;;5032629;28;20048;-24
2021/12/15 05:20:14;;;;;;;1.38;1.27;;;16.40;67.50;;;;;;5032589;28;20045;-27
2021/12/15 05:22:40;;;;;;;1.20;1.20;;;16.40;67.60;;;;;;5056599;28;20037;-26
2021/12/15 05:25:06;;;;;;;1.30;1.20;;;16.30;67.50;;;;;;5047455;28;20056;-28
2021/12/15 05:27:32;;;;;;;1.30;1.23;;;16.30;67.50;;;;;;5038332;28;20099;-30
2021/12/15 05:29:58;;;;;;;1.17;1.15;;;16.30;67.50;;;;;;5029392;28;20041;-25
2021/12/15 05:32:23;;;;;;;1.10;1.10;;;16.30;67.50;;;;;;5029722;28;20145;-30
2021/12/15 05:34:51;;;;;;;0.90;0.90;;;16.40;67.50;;;;;;5056358;28;20048;-30
2021/12/15 05:37:17;;;;;;;0.90;0.88;;;16.30;67.50;;;;;;5036574;28;20069;-25
2021/12/15 05:39:43;;;;;;;1.15;1.08;;;16.30;67.40;;;;;;5026234;28;20046;-31
2021/12/15 05:42:09;;;;;;;1.02;1.02;;;16.30;67.50;;;;;;5017920;28;20180;-28
2021/12/15 05:44:35;;;;;;;1.45;1.00;;;16.30;67.60;;;;;;5018317;28;20073;-27
2021/12/15 05:47:01;;;;;;;0.88;0.88;;;16.30;67.60;;;;;;5017903;28;20037;-24
2021/12/15 05:49:26;;;;;;;0.80;0.80;;;16.30;67.60;;;;;;5018204;28;20104;-32
2021/12/15 05:51:52;;;;;;;1.05;1.05;;;16.30;67.60;;;;;;5023309;28;20037;-28
2021/12/15 05:54:18;;;;;;;0.82;0.80;;;16.30;67.60;;;;;;5037515;28;20529;-26
2021/12/15 05:56:43;;;;;;;1.00;1.00;;;16.30;67.60;;;;;;5032184;28;20077;-27
2021/12/15 05:59:09;;;;;;;0.80;0.80;;;16.30;67.40;;;;;;5018764;28;20046;-25
2021/12/15 06:01:35;;;;;;;0.90;0.90;;;16.30;67.40;;;;;;5018273;28;20100;-23
2021/12/15 06:04:00;;;;;;;0.70;0.70;;;16.30;67.50;;;;;;5029653;28;20099;-27
2021/12/15 06:06:27;;;;;;;0.82;0.82;;;16.30;67.50;;;;;;5031213;28;20124;-22
2021/12/15 06:08:53;;;;;;;1.00;1.00;;;16.40;67.60;;;;;;4686393;28;10000597;-27
2021/12/15 06:11:19;;;;;;;0.80;0.80;;;16.40;67.70;;;;;;5033495;28;20045;-30
2021/12/15 06:13:47;;;;;;;0.90;0.90;;;16.40;67.60;;;;;;5034235;28;20045;-28
2021/12/15 06:16:14;;;;;;;0.90;0.90;;;16.50;67.70;;;;;;5033367;28;20565;-30
2021/12/15 06:18:40;;;;;;;0.93;0.93;;;16.50;67.40;;;;;;5033996;28;20045;-23
2021/12/15 06:21:05;;;;;;;1.08;1.05;;;16.50;67.50;;;;;;5038931;28;20037;-25
2021/12/15 06:23:31;;;;;;;0.88;0.88;;;16.50;67.50;;;;;;5040016;28;20080;-29
2021/12/15 06:25:59;;;;;;;1.15;1.05;;;16.50;67.50;;;;;;5033293;28;20030;-27
2021/12/15 06:28:25;;;;;;;0.88;0.88;;;16.40;67.60;;;;;;5034086;28;20045;-25
2021/12/15 06:30:51;;;;;;;0.95;0.95;;;16.50;67.50;;;;;;5033922;28;20052;-24
2021/12/15 06:33:17;;;;;;;1.30;1.30;;;16.50;67.80;;;;;;5039615;28;20537;-28
2021/12/15 06:35:52;;;;;;;1.80;1.70;;;16.50;67.80;;;;;;5053785;28;20037;-27
2021/12/15 06:38:17;;;;;;;2.10;2.00;;;16.50;68.00;;;;;;5033452;28;20049;-26
2021/12/15 06:40:43;;;;;;;1.75;1.65;;;16.50;67.90;;;;;;5033441;28;20048;-24
2021/12/15 06:43:09;;;;;;;1.95;1.85;;;16.50;68.10;;;;;;5032357;28;20045;-29
2021/12/15 06:45:45;;;;;;;1.90;1.80;;;16.50;68.20;;;;;;5033474;28;20053;-25
2021/12/15 06:59:07;;;;;;;2.55;2.35;;;16.60;68.30;;;;;;5025962;28;19941;-22
2021/12/15 07:01:33;;;;;;;3.42;3.22;;;16.60;68.30;;;;;;5034643;28;20441;-28
2021/12/15 07:03:59;;;;;;;3.88;3.58;;;16.60;68.30;;;;;;5035980;28;20125;-23
2021/12/15 07:06:24;;;;;;;3.80;3.50;;;16.50;68.20;;;;;;5035412;28;20068;-28
2021/12/15 07:08:50;;;;;;;4.28;3.60;;;16.60;68.30;;;;;;5036444;28;20089;-26
2021/12/15 07:11:16;;;;;;;4.43;4.13;;;16.50;68.20;;;;;;5032245;28;20530;-26
2021/12/15 07:13:41;;;;;;;8.13;7.13;;;16.60;68.40;;;;;;5032219;28;20103;-24
2021/12/15 07:16:09;;;;;;;8.43;7.50;;;16.60;68.40;;;;;;5026057;28;20045;-29
2021/12/15 07:18:42;;;;;;;7.60;6.82;;;16.50;68.50;;;;;;5019672;28;20053;-27
2021/12/15 07:21:10;;;;;;;7.75;6.90;;;16.60;68.70;;;;;;5016899;28;20052;-25
2021/12/15 07:23:36;;;;;;;9.73;7.60;;;16.50;68.80;;;;;;5026469;28;20041;-29
2021/12/15 07:26:02;;;;;;;9.52;6.97;;;16.50;68.70;;;;;;5022732;28;20053;-25
2021/12/15 07:28:27;;;;;;;7.53;6.43;;;16.50;68.80;;;;;;5019332;28;20064;-28
2021/12/15 07:30:54;;;;;;;8.57;7.10;;;16.50;68.90;;;;;;5027112;28;20164;-37
2021/12/15 07:33:20;;;;;;;7.72;6.57;;;16.50;68.80;;;;;;5026884;28;20048;-26
2021/12/15 07:35:45;;;;;;;7.03;6.10;;;16.50;68.70;;;;;;5020322;28;20060;-29
2021/12/15 07:38:11;;;;;;;7.20;6.50;;;16.60;68.60;;;;;;5017888;28;20045;-29
2021/12/15 07:40:37;;;;;;;6.68;6.07;;;16.60;68.50;;;;;;5019893;28;20049;-29
2021/12/15 07:43:11;;;;;;;8.18;6.25;;;16.60;68.40;;;;;;5027079;28;20047;-22
2021/12/15 07:45:41;;;;;;;6.43;5.82;;;16.60;68.30;;;;;;5027734;28;20045;-23
2021/12/15 07:48:07;;;;;;;5.60;5.00;;;16.60;68.10;;;;;;5046555;28;20068;-21
2021/12/15 07:50:33;;;;;;;6.03;5.43;;;16.60;68.00;;;;;;5029467;28;20053;-24
2021/12/15 07:52:59;;;;;;;6.68;6.07;;;16.60;67.90;;;;;;5034515;28;20049;-22
2021/12/15 07:55:25;;;;;;;6.40;5.80;;;16.60;68.00;;;;;;5033023;28;20614;-27
2021/12/15 07:57:52;;;;;;;6.60;5.90;;;16.60;68.00;;;;;;5034837;28;20060;-24
2021/12/15 08:00:17;;;;;;;5.45;5.05;;;16.60;67.80;;;;;;5034219;28;20518;-23
2021/12/15 08:02:43;;;;;;;5.97;5.45;;;16.60;67.90;;;;;;5043195;28;20045;-25
2021/12/15 08:05:09;;;;;;;6.45;5.93;;;16.60;67.80;;;;;;5042079;28;20033;-20
2021/12/15 08:07:34;;;;;;;6.63;6.00;;;16.60;67.90;;;;;;5039201;28;20113;-22
2021/12/15 08:10:03;;;;;;;6.13;5.63;;;16.60;67.90;;;;;;5038467;28;20395;-21
2021/12/15 08:12:29;;;;;;;5.45;4.95;;;16.50;67.80;;;;;;5042525;28;20380;-23
2021/12/15 08:14:55;;;;;;;5.53;5.03;;;16.50;67.80;;;;;;5041532;28;20068;-23
2021/12/15 08:17:21;;;;;;;6.05;5.50;;;16.50;67.80;;;;;;5037166;28;20048;-22
2021/12/15 08:19:46;;;;;;;6.20;5.20;;;16.50;67.80;;;;;;5040456;28;20129;-20
2021/12/15 08:22:12;;;;;;;5.53;5.03;;;16.50;67.70;;;;;;5033623;28;20109;-21
2021/12/15 08:24:37;;;;;;;5.88;5.38;;;16.50;67.60;;;;;;5034198;28;20076;-20
2021/12/15 08:27:03;;;;;;;5.38;4.55;;;16.50;67.60;;;;;;5033838;28;20051;-27
2021/12/15 08:29:29;;;;;;;6.30;5.70;;;16.50;67.60;;;;;;5034238;28;20051;-20
2021/12/15 08:31:54;;;;;;;5.72;5.22;;;16.50;67.70;;;;;;5038031;28;20108;-23
2021/12/15 08:34:20;;;;;;;5.65;5.18;;;16.50;67.50;;;;;;5027884;28;20517;-21
2021/12/15 08:36:46;;;;;;;4.90;4.50;;;16.50;67.50;;;;;;5031493;28;20072;-26
2021/12/15 08:39:12;;;;;;;6.35;4.85;;;16.50;67.50;;;;;;5026791;28;20044;-24
2021/12/15 08:41:38;;;;;;;4.57;4.22;;;16.50;67.60;;;;;;5028060;28;20037;-25
2021/12/15 08:44:08;;;;;;;5.65;5.15;;;16.50;67.50;;;;;;5028454;28;20403;-22
2021/12/15 08:46:38;;;;;;;5.18;4.72;;;16.50;67.50;;;;;;5050392;28;20091;-29
2021/12/15 08:49:04;;;;;;;4.93;4.63;;;16.50;67.40;;;;;;5044675;28;20050;-25
2021/12/15 08:51:30;;;;;;;5.45;4.95;;;16.50;67.50;;;;;;5029003;28;20405;-21
2021/12/15 08:53:59;;;;;;;4.90;4.50;;;16.50;67.50;;;;;;5053342;28;20582;-26
2021/12/15 08:56:25;;;;;;;5.00;4.30;;;16.50;67.50;;;;;;5053247;28;20140;-27
2021/12/15 08:58:50;;;;;;;4.53;4.18;;;16.50;67.30;;;;;;5049027;28;20053;-24
2021/12/15 09:01:16;;;;;;;4.78;4.38;;;16.50;67.40;;;;;;5052561;28;20056;-31
2021/12/15 09:03:43;;;;;;;4.85;4.45;;;16.60;67.30;;;;;;5049096;28;20046;-22
2021/12/15 09:06:09;;;;;;;4.32;4.03;;;16.60;67.20;;;;;;5046999;28;20151;-24
2021/12/15 09:08:35;;;;;;;4.55;4.25;;;16.60;67.10;;;;;;5053419;28;20129;-21
2021/12/15 09:11:04;;;;;;;4.72;4.43;;;16.60;67.10;;;;;;5052469;28;20567;-27
2021/12/15 09:13:31;;;;;;;4.40;4.10;;;16.70;67.10;;;;;;5041104;28;20774;-26
2021/12/15 09:16:01;;;;;;;4.07;3.78;;;16.70;66.80;;;;;;5032948;28;20568;-29
2021/12/15 09:18:27;;;;;;;3.90;3.60;;;16.70;67.10;;;;;;5048126;28;20073;-24
2021/12/15 09:20:52;;;;;;;4.15;3.75;;;16.70;67.20;;;;;;5041077;28;20622;-30
2021/12/15 09:23:18;;;;;;;4.57;4.10;;;16.70;67.30;;;;;;5027212;28;20057;-26
2021/12/15 09:25:45;;;;;;;3.97;3.67;;;16.70;67.40;;;;;;5030297;28;20095;-29
2021/12/15 09:28:10;;;;;;;4.35;3.90;;;16.70;67.20;;;;;;5031623;28;20041;-31
2021/12/15 09:30:43;;;;;;;3.50;3.30;;;16.70;67.20;;;;;;5052311;28;20104;-25
2021/12/15 09:33:09;;;;;;;4.28;3.97;;;16.70;67.40;;;;;;5030603;28;20707;-26
2021/12/15 09:35:35;;;;;;;3.70;3.50;;;16.60;67.40;;;;;;5027639;28;20040;-30
2021/12/15 09:38:01;;;;;;;3.78;3.47;;;16.70;67.50;;;;;;5025402;28;20045;-28
2021/12/15 09:40:26;;;;;;;4.10;3.80;;;16.70;67.50;;;;;;5032889;28;21834;-25
2021/12/15 09:42:52;;;;;;;3.88;3.63;;;16.70;67.50;;;;;;5023887;28;20049;-28
2021/12/15 10:18:18;;;;;;;3.83;3.63;;;16.70;67.30;;;;;;5039709;28;20060;-30
2021/12/15 10:20:43;;;;;;;6.35;3.75;;;16.70;67.10;;;;;;5035979;28;20045;-32
2021/12/15 10:23:12;;;;;;;4.30;3.53;;;16.80;67.00;;;;;;5034948;28;20092;-35
2021/12/15 10:25:43;;;;;;;4.95;4.43;;;16.80;67.10;;;;;;5034375;28;20041;-31
2021/12/15 10:28:11;;;;;;;4.72;4.43;;;16.80;67.00;;;;;;5035544;28;20108;-29
2021/12/15 10:30:40;;;;;;;5.63;5.15;;;16.80;66.90;;;;;;5034404;28;20048;-29
2021/12/15 10:33:17;;;;;;;6.65;5.35;;;16.80;67.10;;;;;;5041815;28;20759;-35
2021/12/15 10:36:04;;;;;;;6.05;5.45;;;16.80;67.00;;;;;;5043708;28;20042;-32
2021/12/15 10:38:38;;;;;;;7.88;6.40;;;16.80;66.90;;;;;;5044038;28;20042;-32
2021/12/15 10:41:08;;;;;;;10.25;7.30;;;16.80;67.00;;;;;;5044643;28;20049;-29
2021/12/15 10:43:42;;;;;;;10.80;7.82;;;16.80;67.00;;;;;;5035348;28;20094;-31
2021/12/15 10:46:13;;;;;;;9.30;7.50;;;16.80;67.00;;;;;;5036616;28;20045;-32
2021/12/15 10:49:06;;;;;;;13.05;8.70;;;16.80;66.80;;;;;;5038931;28;20041;-30
2021/12/15 10:51:31;;;;;;;11.90;8.20;;;16.80;66.90;;;;;;5038512;28;20049;-28
2021/12/15 10:54:15;;;;;;;12.90;8.45;;;16.80;66.80;;;;;;5036993;28;20524;-34
2021/12/15 10:56:56;;;;;;;11.48;8.77;;;16.80;66.70;;;;;;5041299;28;20052;-31
2021/12/15 10:59:23;;;;;;;14.65;9.38;;;16.80;66.80;;;;;;5043165;28;20104;-32
2021/12/15 11:02:05;;;;;;;13.35;8.68;;;16.80;66.80;;;;;;5045268;28;20485;-31
2021/12/15 11:04:42;;;;;;;13.23;8.68;;;16.90;66.70;;;;;;5043639;28;20051;-32
2021/12/15 11:07:13;;;;;;;16.35;9.30;;;16.80;66.50;;;;;;5035472;28;20057;-33
2021/12/15 11:09:46;;;;;;;13.23;9.25;;;16.80;66.50;;;;;;5027353;28;20057;-31
2021/12/15 11:12:46;;;;;;;14.25;9.32;;;16.80;66.50;;;;;;5041583;28;20037;-26
2021/12/15 11:15:23;;;;;;;14.23;8.77;;;16.80;66.40;;;;;;5051220;28;20040;-26
2021/12/15 11:17:56;;;;;;;17.23;9.65;;;16.80;66.70;;;;;;5041842;28;20132;-25
2021/12/15 11:20:27;;;;;;;15.80;9.35;;;16.70;66.70;;;;;;5034303;28;20407;-34
2021/12/15 11:23:14;;;;;;;12.57;9.05;;;16.80;66.70;;;;;;5048022;28;20048;-31
2021/12/15 11:25:41;;;;;;;13.90;9.75;;;16.80;66.60;;;;;;5042870;28;20041;-26
2021/12/15 11:28:18;;;;;;;13.15;9.80;;;16.80;66.50;;;;;;5043446;28;20571;-27
2021/12/15 11:30:46;;;;;;;12.90;8.70;;;16.80;66.50;;;;;;5035117;28;20517;-26
2021/12/15 11:33:17;;;;;;;12.25;8.70;;;16.80;66.50;;;;;;5042464;28;20051;-32
2021/12/15 11:35:55;;;;;;;12.82;8.48;;;16.80;66.40;;;;;;5054970;28;20601;-26
2021/12/15 11:38:31;;;;;;;13.10;9.13;;;16.70;66.30;;;;;;5054814;28;20545;-27
2021/12/15 11:40:57;;;;;;;10.52;8.02;;;16.80;66.30;;;;;;5055360;28;20200;-38
2021/12/15 11:43:32;;;;;;;12.57;8.18;;;16.80;66.30;;;;;;5053110;28;20121;-37
2021/12/15 11:45:59;;;;;;;13.38;8.93;;;16.80;66.20;;;;;;5055353;28;20041;-31
2021/12/15 11:48:30;;;;;;;13.35;8.85;;;16.80;66.10;;;;;;5052920;28;20084;-32
2021/12/15 11:50:59;;;;;;;11.65;8.77;;;16.80;66.20;;;;;;5055181;28;20041;-34
2021/12/15 11:53:44;;;;;;;13.20;8.93;;;16.80;66.10;;;;;;5054698;28;20153;-25
2021/12/15 11:56:22;;;;;;;10.88;8.27;;;16.80;66.00;;;;;;5048864;28;20120;-29
2021/12/15 11:58:50;;;;;;;13.52;7.90;;;16.80;65.90;;;;;;5054167;28;20041;-29
2021/12/15 12:01:42;;;;;;;10.80;8.77;;;16.80;66.00;;;;;;5045977;28;20033;-31
2021/12/15 12:04:09;;;;;;;11.38;8.48;;;16.80;66.00;;;;;;5035145;28;20056;-29
2021/12/15 12:06:35;;;;;;;12.93;8.70;;;16.80;66.10;;;;;;5034095;28;20073;-28
2021/12/15 12:09:01;;;;;;;9.50;7.82;;;16.70;66.00;;;;;;5034839;28;20053;-27
2021/12/15 12:11:28;;;;;;;9.90;7.95;;;16.80;66.00;;;;;;5034226;28;20050;-26
2021/12/15 12:13:58;;;;;;;12.65;7.70;;;16.80;65.90;;;;;;5034431;28;20102;-27
2021/12/15 12:16:25;;;;;;;10.32;7.47;;;16.80;66.00;;;;;;5027357;28;20052;-31
2021/12/15 12:18:51;;;;;;;11.15;7.85;;;16.80;65.80;;;;;;4667818;28;10000290;-33
2021/12/15 12:21:16;;;;;;;9.68;7.70;;;16.80;65.70;;;;;;5016938;28;20707;-36
2021/12/15 12:23:45;;;;;;;10.18;7.70;;;16.90;65.60;;;;;;5021811;28;20053;-30
2021/12/15 12:26:11;;;;;;;10.55;8.38;;;16.80;65.60;;;;;;5012938;28;20041;-29
2021/12/15 12:28:39;;;;;;;11.40;7.90;;;17.00;65.60;;;;;;5017551;28;20060;-33
2021/12/15 12:31:11;;;;;;;10.32;8.38;;;16.90;65.80;;;;;;5017994;28;20148;-34
2021/12/15 12:33:36;;;;;;;9.30;7.60;;;16.90;66.00;;;;;;5020795;28;20049;-30
2021/12/15 12:36:08;;;;;;;12.20;7.97;;;16.90;66.00;;;;;;5031658;28;20730;-30
2021/12/15 12:38:37;;;;;;;10.95;7.88;;;16.90;66.10;;;;;;5009058;28;20050;-34
2021/12/15 12:41:16;;;;;;;9.52;7.35;;;17.00;65.90;;;;;;5024093;28;20084;-25
2021/12/15 12:43:45;;;;;;;11.57;8.63;;;17.00;65.90;;;;;;5016007;28;20046;-26
2021/12/15 12:46:20;;;;;;;9.15;7.40;;;17.00;66.00;;;;;;5023097;28;20679;-32
2021/12/15 13:00:57;;;;;;;9.82;7.93;;;17.10;66.00;;;;;;5033238;28;20778;-29
2021/12/15 13:03:51;;;;;;;7.65;6.85;;;17.10;66.00;;;;;;5020747;28;20127;-31
2021/12/15 13:06:25;;;;;;;9.65;8.00;;;17.20;65.80;;;;;;5008471;28;20057;-23
2021/12/15 13:09:01;;;;;;;8.68;7.53;;;17.10;65.70;;;;;;5025656;28;20144;-32
2021/12/15 13:11:35;;;;;;;8.68;7.28;;;17.10;65.70;;;;;;5021992;28;20053;-27
2021/12/15 13:14:16;;;;;;;12.30;7.13;;;17.10;65.80;;;;;;5021207;28;20059;-32
2021/12/15 13:16:49;;;;;;;8.48;7.57;;;17.10;65.60;;;;;;5016380;28;20054;-25
2021/12/15 13:19:29;;;;;;;8.45;7.18;;;17.20;65.60;;;;;;5030613;28;20042;-29
2021/12/15 13:30:43;;;;;;;8.52;6.03;;;17.20;65.90;;;;;;5023115;28;20092;-25
2021/12/15 13:33:16;;;;;;;6.80;6.15;;;17.20;65.70;;;;;;5037899;28;20041;-26
2021/12/15 13:35:53;;;;;;;6.13;5.53;;;17.20;65.70;;;;;;5032110;28;20517;-29
2021/12/15 13:38:30;;;;;;;7.07;5.90;;;17.10;65.70;;;;;;4998235;28;20674;-32
2021/12/15 13:41:07;;;;;;;6.18;5.57;;;17.10;65.60;;;;;;4997755;28;20148;-30
2021/12/15 13:43:43;;;;;;;6.20;5.70;;;17.20;65.40;;;;;;5025118;28;20452;-30
2021/12/15 13:46:27;;;;;;;6.15;5.55;;;17.30;65.10;;;;;;5034665;28;20277;-29
2021/12/15 13:49:05;;;;;;;6.70;5.95;;;17.30;65.10;;;;;;5023809;28;20057;-31
2021/12/15 13:51:53;;;;;;;8.05;5.38;;;17.30;65.00;;;;;;5030553;28;20052;-27
2021/12/15 13:54:22;;;;;;;6.07;5.32;;;17.30;65.00;;;;;;5031881;28;20648;-32
2021/12/15 13:56:52;;;;;;;6.82;5.10;;;17.30;65.20;;;;;;5030674;28;20133;-28
2021/12/15 13:59:34;;;;;;;5.80;5.20;;;17.30;65.20;;;;;;5032687;28;20096;-28
2021/12/15 14:02:19;;;;;;;5.43;4.93;;;17.20;65.20;;;;;;5043765;28;20044;-25
2021/12/15 14:04:45;;;;;;;6.43;5.70;;;17.20;65.20;;;;;;5043219;28;20052;-24
2021/12/15 14:07:31;;;;;;;5.25;4.75;;;17.30;65.30;;;;;;5041913;28;20045;-28
2021/12/15 14:10:12;;;;;;;5.60;5.10;;;17.20;65.10;;;;;;5024623;28;20052;-30
2021/12/15 14:12:47;;;;;;;5.47;4.95;;;17.30;65.10;;;;;;5042517;28;20962;-30
2021/12/15 14:15:25;;;;;;;5.97;5.18;;;17.20;65.10;;;;;;5042306;28;20053;-30
2021/12/15 14:17:57;;;;;;;5.65;5.10;;;17.20;65.20;;;;;;5042739;28;20110;-27
2021/12/15 14:20:22;;;;;;;5.55;5.15;;;17.20;65.20;;;;;;5043377;28;20765;-35
2021/12/15 14:23:01;;;;;;;5.25;4.75;;;17.30;65.30;;;;;;5042741;28;20056;-26
2021/12/15 14:25:27;;;;;;;5.38;4.82;;;17.30;65.20;;;;;;5041237;28;20059;-28
2021/12/15 14:27:52;;;;;;;4.93;4.38;;;17.30;65.30;;;;;;5042088;28;20104;-31
2021/12/15 14:30:18;;;;;;;5.22;4.68;;;17.20;65.30;;;;;;5041432;28;20045;-33
2021/12/15 14:32:44;;;;;;;5.10;4.60;;;17.30;65.30;;;;;;5041789;28;21691;-27
2021/12/15 14:35:22;;;;;;;4.25;3.88;;;17.20;65.30;;;;;;5040760;28;20056;-33